sensor_id;sensor_type;location;lat;lon;timestamp;P1;durP1;ratioP1;P2;durP2;ratioP2
75542;SDS011;64129;53.508;10.476;2022-12-07T00:00:13;27.90;;;12.70;;
75542;SDS011;64129;53.508;10.476;2022-12-07T00:02:40;22.75;;;11.40;;
75542;SDS011;64129;53.508;10.476;2022-12-07T00:05:06;25.80;;;12.10;;
75542;SDS011;64129;53.508;10.476;2022-12-07T00:07:33;24.13;;;12.43;;
75542;SDS011;64129;53.508;10.476;2022-12-07T00:10:00;23.52;;;12.10;;
75542;SDS011;64129;53.508;10.476;2022-12-07T00:12:26;22.05;;;10.88;;
75542;SDS011;64129;53.508;10.476;2022-12-07T00:14:53;16.85;;;10.18;;
75542;SDS011;64129;53.508;10.476;2022-12-07T00:17:19;24.70;;;13.25;;
75542;SDS011;64129;53.508;10.476;2022-12-07T00:19:46;21.95;;;11.52;;
75542;SDS011;64129;53.508;10.476;2022-12-07T00:22:12;19.67;;;9.82;;
75542;SDS011;64129;53.508;10.476;2022-12-07T00:24:39;24.17;;;12.82;;
75542;SDS011;64129;53.508;10.476;2022-12-07T00:27:05;18.08;;;9.52;;
75542;SDS011;64129;53.508;10.476;2022-12-07T00:29:32;26.63;;;12.93;;
75542;SDS011;64129;53.508;10.476;2022-12-07T00:31:58;23.90;;;11.98;;
75542;SDS011;64129;53.508;10.476;2022-12-07T00:34:25;26.00;;;13.15;;
75542;SDS011;64129;53.508;10.476;2022-12-07T00:36:51;23.58;;;13.63;;
75542;SDS011;64129;53.508;10.476;2022-12-07T00:39:18;20.65;;;11.70;;
75542;SDS011;64129;53.508;10.476;2022-12-07T00:41:44;22.27;;;11.98;;
75542;SDS011;64129;53.508;10.476;2022-12-07T00:44:11;23.92;;;13.43;;
75542;SDS011;64129;53.508;10.476;2022-12-07T00:46:37;25.63;;;12.30;;
75542;SDS011;64129;53.508;10.476;2022-12-07T00:49:04;21.40;;;11.13;;
75542;SDS011;64129;53.508;10.476;2022-12-07T00:51:31;24.27;;;12.75;;
75542;SDS011;64129;53.508;10.476;2022-12-07T00:53:57;20.58;;;9.80;;
75542;SDS011;64129;53.508;10.476;2022-12-07T00:56:25;26.95;;;13.07;;
75542;SDS011;64129;53.508;10.476;2022-12-07T00:58:55;26.00;;;13.38;;
75542;SDS011;64129;53.508;10.476;2022-12-07T01:01:23;23.15;;;12.60;;
75542;SDS011;64129;53.508;10.476;2022-12-07T01:03:51;21.63;;;11.02;;
75542;SDS011;64129;53.508;10.476;2022-12-07T01:06:18;24.65;;;12.40;;
75542;SDS011;64129;53.508;10.476;2022-12-07T01:11:14;18.60;;;9.32;;
75542;SDS011;64129;53.508;10.476;2022-12-07T01:13:42;19.95;;;10.32;;
75542;SDS011;64129;53.508;10.476;2022-12-07T01:16:10;26.50;;;12.73;;
75542;SDS011;64129;53.508;10.476;2022-12-07T01:18:39;20.90;;;10.38;;
75542;SDS011;64129;53.508;10.476;2022-12-07T01:21:11;26.45;;;13.20;;
75542;SDS011;64129;53.508;10.476;2022-12-07T01:23:40;23.90;;;13.00;;
75542;SDS011;64129;53.508;10.476;2022-12-07T01:26:09;21.73;;;12.60;;
75542;SDS011;64129;53.508;10.476;2022-12-07T01:28:37;22.17;;;11.75;;
75542;SDS011;64129;53.508;10.476;2022-12-07T01:31:09;23.85;;;12.68;;
75542;SDS011;64129;53.508;10.476;2022-12-07T01:33:44;19.15;;;10.85;;
75542;SDS011;64129;53.508;10.476;2022-12-07T01:38:54;23.70;;;12.30;;
75542;SDS011;64129;53.508;10.476;2022-12-07T01:41:23;19.70;;;11.48;;
75542;SDS011;64129;53.508;10.476;2022-12-07T01:46:52;22.40;;;11.43;;
75542;SDS011;64129;53.508;10.476;2022-12-07T01:54:44;16.20;;;9.55;;
75542;SDS011;64129;53.508;10.476;2022-12-07T01:57:11;19.33;;;11.30;;
75542;SDS011;64129;53.508;10.476;2022-12-07T01:59:43;16.35;;;10.05;;
75542;SDS011;64129;53.508;10.476;2022-12-07T02:02:17;18.98;;;10.00;;
75542;SDS011;64129;53.508;10.476;2022-12-07T02:04:46;21.25;;;11.18;;
75542;SDS011;64129;53.508;10.476;2022-12-07T02:07:13;18.05;;;10.32;;
75542;SDS011;64129;53.508;10.476;2022-12-07T02:09:39;19.27;;;10.25;;
75542;SDS011;64129;53.508;10.476;2022-12-07T02:12:06;20.65;;;10.82;;
75542;SDS011;64129;53.508;10.476;2022-12-07T02:14:33;19.27;;;10.32;;
75542;SDS011;64129;53.508;10.476;2022-12-07T02:21:58;15.50;;;9.23;;
75542;SDS011;64129;53.508;10.476;2022-12-07T02:30:05;17.10;;;9.00;;
75542;SDS011;64129;53.508;10.476;2022-12-07T02:32:42;16.13;;;8.15;;
75542;SDS011;64129;53.508;10.476;2022-12-07T02:35:17;18.63;;;9.00;;
75542;SDS011;64129;53.508;10.476;2022-12-07T02:37:50;14.77;;;8.95;;
75542;SDS011;64129;53.508;10.476;2022-12-07T02:43:04;14.55;;;8.70;;
75542;SDS011;64129;53.508;10.476;2022-12-07T02:45:39;15.52;;;8.23;;
75542;SDS011;64129;53.508;10.476;2022-12-07T02:48:08;10.90;;;6.60;;
75542;SDS011;64129;53.508;10.476;2022-12-07T02:50:38;15.43;;;8.30;;
75542;SDS011;64129;53.508;10.476;2022-12-07T02:53:04;16.42;;;8.60;;
75542;SDS011;64129;53.508;10.476;2022-12-07T02:55:33;14.90;;;7.75;;
75542;SDS011;64129;53.508;10.476;2022-12-07T03:01:28;13.00;;;7.10;;
75542;SDS011;64129;53.508;10.476;2022-12-07T03:07:03;11.85;;;6.53;;
75542;SDS011;64129;53.508;10.476;2022-12-07T03:09:50;15.57;;;6.95;;
75542;SDS011;64129;53.508;10.476;2022-12-07T03:12:31;11.40;;;6.05;;
75542;SDS011;64129;53.508;10.476;2022-12-07T03:15:14;8.05;;;5.55;;
75542;SDS011;64129;53.508;10.476;2022-12-07T03:17:52;9.05;;;5.07;;
75542;SDS011;64129;53.508;10.476;2022-12-07T03:20:22;11.13;;;5.60;;
75542;SDS011;64129;53.508;10.476;2022-12-07T03:22:51;9.85;;;5.47;;
75542;SDS011;64129;53.508;10.476;2022-12-07T03:25:20;8.07;;;4.93;;
75542;SDS011;64129;53.508;10.476;2022-12-07T03:27:49;8.68;;;4.65;;
75542;SDS011;64129;53.508;10.476;2022-12-07T03:30:19;9.63;;;5.20;;
75542;SDS011;64129;53.508;10.476;2022-12-07T03:32:59;6.32;;;4.25;;
75542;SDS011;64129;53.508;10.476;2022-12-07T03:35:34;11.65;;;5.07;;
75542;SDS011;64129;53.508;10.476;2022-12-07T03:38:11;7.35;;;4.05;;
75542;SDS011;64129;53.508;10.476;2022-12-07T03:40:44;6.43;;;4.28;;
75542;SDS011;64129;53.508;10.476;2022-12-07T03:43:17;6.97;;;4.22;;
75542;SDS011;64129;53.508;10.476;2022-12-07T03:45:48;7.05;;;4.05;;
75542;SDS011;64129;53.508;10.476;2022-12-07T03:49:18;7.97;;;4.13;;
75542;SDS011;64129;53.508;10.476;2022-12-07T03:51:37;5.50;;;3.47;;
75542;SDS011;64129;53.508;10.476;2022-12-07T03:54:11;3.70;;;2.58;;
75542;SDS011;64129;53.508;10.476;2022-12-07T03:56:40;4.88;;;3.00;;
75542;SDS011;64129;53.508;10.476;2022-12-07T03:59:08;1.33;;;1.23;;
75542;SDS011;64129;53.508;10.476;2022-12-07T04:01:37;5.63;;;2.97;;
75542;SDS011;64129;53.508;10.476;2022-12-07T04:04:03;4.55;;;2.83;;
75542;SDS011;64129;53.508;10.476;2022-12-07T04:06:30;5.25;;;2.25;;
75542;SDS011;64129;53.508;10.476;2022-12-07T04:08:56;3.58;;;2.53;;
75542;SDS011;64129;53.508;10.476;2022-12-07T04:11:23;6.25;;;3.15;;
75542;SDS011;64129;53.508;10.476;2022-12-07T04:13:49;7.07;;;2.60;;
75542;SDS011;64129;53.508;10.476;2022-12-07T04:16:34;6.50;;;2.53;;
75542;SDS011;64129;53.508;10.476;2022-12-07T04:19:03;4.15;;;2.50;;
75542;SDS011;64129;53.508;10.476;2022-12-07T04:21:30;3.65;;;2.40;;
75542;SDS011;64129;53.508;10.476;2022-12-07T04:23:56;3.20;;;2.70;;
75542;SDS011;64129;53.508;10.476;2022-12-07T04:26:23;3.47;;;2.30;;
75542;SDS011;64129;53.508;10.476;2022-12-07T04:28:49;4.43;;;2.22;;
75542;SDS011;64129;53.508;10.476;2022-12-07T04:31:16;2.55;;;1.88;;
75542;SDS011;64129;53.508;10.476;2022-12-07T04:33:42;6.57;;;2.47;;
75542;SDS011;64129;53.508;10.476;2022-12-07T04:36:09;3.00;;;2.70;;
75542;SDS011;64129;53.508;10.476;2022-12-07T04:38:35;4.57;;;2.35;;
75542;SDS011;64129;53.508;10.476;2022-12-07T04:41:05;2.88;;;1.67;;
75542;SDS011;64129;53.508;10.476;2022-12-07T04:43:33;4.50;;;2.15;;
75542;SDS011;64129;53.508;10.476;2022-12-07T04:46:00;2.67;;;1.75;;
75542;SDS011;64129;53.508;10.476;2022-12-07T04:48:27;4.88;;;2.30;;
75542;SDS011;64129;53.508;10.476;2022-12-07T04:50:54;3.83;;;1.83;;
75542;SDS011;64129;53.508;10.476;2022-12-07T04:53:21;3.70;;;2.15;;
75542;SDS011;64129;53.508;10.476;2022-12-07T04:55:47;6.38;;;2.40;;
75542;SDS011;64129;53.508;10.476;2022-12-07T04:58:14;3.83;;;2.55;;
75542;SDS011;64129;53.508;10.476;2022-12-07T05:00:40;5.15;;;2.80;;
75542;SDS011;64129;53.508;10.476;2022-12-07T05:03:07;5.57;;;2.28;;
75542;SDS011;64129;53.508;10.476;2022-12-07T05:05:33;4.10;;;2.58;;
75542;SDS011;64129;53.508;10.476;2022-12-07T05:08:00;3.10;;;2.17;;
75542;SDS011;64129;53.508;10.476;2022-12-07T05:10:26;3.13;;;2.10;;
75542;SDS011;64129;53.508;10.476;2022-12-07T05:12:53;6.50;;;2.58;;
75542;SDS011;64129;53.508;10.476;2022-12-07T05:15:19;3.10;;;1.95;;
75542;SDS011;64129;53.508;10.476;2022-12-07T05:17:46;5.03;;;2.47;;
75542;SDS011;64129;53.508;10.476;2022-12-07T05:20:12;4.32;;;1.90;;
75542;SDS011;64129;53.508;10.476;2022-12-07T05:22:39;5.25;;;2.33;;
75542;SDS011;64129;53.508;10.476;2022-12-07T05:25:05;4.68;;;2.25;;
75542;SDS011;64129;53.508;10.476;2022-12-07T05:27:32;4.10;;;2.38;;
75542;SDS011;64129;53.508;10.476;2022-12-07T05:29:59;3.97;;;2.00;;
75542;SDS011;64129;53.508;10.476;2022-12-07T05:32:25;5.50;;;2.13;;
75542;SDS011;64129;53.508;10.476;2022-12-07T05:34:52;3.58;;;2.42;;
75542;SDS011;64129;53.508;10.476;2022-12-07T05:37:20;2.28;;;1.65;;
75542;SDS011;64129;53.508;10.476;2022-12-07T05:39:47;3.58;;;2.33;;
75542;SDS011;64129;53.508;10.476;2022-12-07T05:42:13;5.43;;;2.38;;
75542;SDS011;64129;53.508;10.476;2022-12-07T05:44:41;3.88;;;2.13;;
75542;SDS011;64129;53.508;10.476;2022-12-07T05:47:12;4.13;;;2.42;;
75542;SDS011;64129;53.508;10.476;2022-12-07T05:49:40;3.75;;;2.33;;
75542;SDS011;64129;53.508;10.476;2022-12-07T05:52:06;4.85;;;2.20;;
75542;SDS011;64129;53.508;10.476;2022-12-07T05:54:33;7.05;;;2.60;;
75542;SDS011;64129;53.508;10.476;2022-12-07T05:57:00;5.93;;;2.80;;
75542;SDS011;64129;53.508;10.476;2022-12-07T05:59:26;8.23;;;2.45;;
75542;SDS011;64129;53.508;10.476;2022-12-07T06:01:55;3.78;;;2.28;;
75542;SDS011;64129;53.508;10.476;2022-12-07T06:04:22;4.95;;;2.60;;
75542;SDS011;64129;53.508;10.476;2022-12-07T06:06:49;2.47;;;2.00;;
75542;SDS011;64129;53.508;10.476;2022-12-07T06:09:16;3.28;;;2.22;;
75542;SDS011;64129;53.508;10.476;2022-12-07T06:11:44;5.68;;;2.53;;
75542;SDS011;64129;53.508;10.476;2022-12-07T06:14:30;3.28;;;2.45;;
75542;SDS011;64129;53.508;10.476;2022-12-07T06:16:57;6.22;;;3.28;;
75542;SDS011;64129;53.508;10.476;2022-12-07T06:19:24;6.47;;;2.72;;
75542;SDS011;64129;53.508;10.476;2022-12-07T06:21:51;4.82;;;2.75;;
75542;SDS011;64129;53.508;10.476;2022-12-07T06:24:17;3.70;;;2.40;;
75542;SDS011;64129;53.508;10.476;2022-12-07T06:26:44;4.18;;;2.85;;
75542;SDS011;64129;53.508;10.476;2022-12-07T06:29:11;6.32;;;2.85;;
75542;SDS011;64129;53.508;10.476;2022-12-07T06:31:38;4.88;;;3.08;;
75542;SDS011;64129;53.508;10.476;2022-12-07T06:34:06;7.65;;;2.95;;
75542;SDS011;64129;53.508;10.476;2022-12-07T06:36:36;6.30;;;2.88;;
75542;SDS011;64129;53.508;10.476;2022-12-07T06:39:02;5.40;;;3.08;;
75542;SDS011;64129;53.508;10.476;2022-12-07T06:41:29;5.15;;;2.72;;
75542;SDS011;64129;53.508;10.476;2022-12-07T06:43:56;4.43;;;3.40;;
75542;SDS011;64129;53.508;10.476;2022-12-07T06:46:23;6.65;;;3.42;;
75542;SDS011;64129;53.508;10.476;2022-12-07T06:48:50;6.80;;;3.08;;
75542;SDS011;64129;53.508;10.476;2022-12-07T06:51:16;6.95;;;3.40;;
75542;SDS011;64129;53.508;10.476;2022-12-07T06:53:43;6.07;;;3.55;;
75542;SDS011;64129;53.508;10.476;2022-12-07T06:56:09;8.07;;;3.33;;
75542;SDS011;64129;53.508;10.476;2022-12-07T06:58:36;5.25;;;3.20;;
75542;SDS011;64129;53.508;10.476;2022-12-07T07:01:03;6.05;;;2.88;;
75542;SDS011;64129;53.508;10.476;2022-12-07T07:03:41;5.35;;;3.53;;
75542;SDS011;64129;53.508;10.476;2022-12-07T07:06:07;7.28;;;3.10;;
75542;SDS011;64129;53.508;10.476;2022-12-07T07:08:34;5.30;;;3.60;;
75542;SDS011;64129;53.508;10.476;2022-12-07T07:11:02;5.40;;;3.70;;
75542;SDS011;64129;53.508;10.476;2022-12-07T07:13:29;6.90;;;3.45;;
75542;SDS011;64129;53.508;10.476;2022-12-07T07:15:55;6.28;;;3.08;;
75542;SDS011;64129;53.508;10.476;2022-12-07T07:18:22;6.63;;;3.50;;
75542;SDS011;64129;53.508;10.476;2022-12-07T07:20:50;5.60;;;3.55;;
75542;SDS011;64129;53.508;10.476;2022-12-07T07:23:17;6.80;;;2.80;;
75542;SDS011;64129;53.508;10.476;2022-12-07T07:25:44;4.00;;;2.80;;
75542;SDS011;64129;53.508;10.476;2022-12-07T07:28:11;5.95;;;2.78;;
75542;SDS011;64129;53.508;10.476;2022-12-07T07:30:38;5.15;;;2.92;;
75542;SDS011;64129;53.508;10.476;2022-12-07T07:33:04;4.72;;;2.42;;
75542;SDS011;64129;53.508;10.476;2022-12-07T07:35:32;5.25;;;2.70;;
75542;SDS011;64129;53.508;10.476;2022-12-07T07:38:00;6.78;;;2.88;;
75542;SDS011;64129;53.508;10.476;2022-12-07T07:40:27;4.90;;;2.67;;
75542;SDS011;64129;53.508;10.476;2022-12-07T07:42:57;6.32;;;2.88;;
75542;SDS011;64129;53.508;10.476;2022-12-07T07:45:24;6.18;;;2.60;;
75542;SDS011;64129;53.508;10.476;2022-12-07T07:47:51;6.82;;;2.88;;
75542;SDS011;64129;53.508;10.476;2022-12-07T07:50:18;5.68;;;2.75;;
75542;SDS011;64129;53.508;10.476;2022-12-07T07:52:45;5.10;;;2.97;;
75542;SDS011;64129;53.508;10.476;2022-12-07T07:55:11;3.72;;;2.30;;
75542;SDS011;64129;53.508;10.476;2022-12-07T07:57:39;5.18;;;2.25;;
75542;SDS011;64129;53.508;10.476;2022-12-07T08:00:07;5.03;;;2.53;;
75542;SDS011;64129;53.508;10.476;2022-12-07T08:02:39;4.10;;;2.15;;
75542;SDS011;64129;53.508;10.476;2022-12-07T08:05:06;6.57;;;2.38;;
75542;SDS011;64129;53.508;10.476;2022-12-07T08:07:33;5.88;;;2.85;;
75542;SDS011;64129;53.508;10.476;2022-12-07T08:09:59;4.60;;;2.75;;
75542;SDS011;64129;53.508;10.476;2022-12-07T08:12:26;8.98;;;2.63;;
75542;SDS011;64129;53.508;10.476;2022-12-07T08:14:53;7.63;;;4.22;;
75542;SDS011;64129;53.508;10.476;2022-12-07T08:17:19;5.53;;;2.70;;
75542;SDS011;64129;53.508;10.476;2022-12-07T08:19:46;5.38;;;2.80;;
75542;SDS011;64129;53.508;10.476;2022-12-07T08:22:12;3.55;;;1.80;;
75542;SDS011;64129;53.508;10.476;2022-12-07T08:24:39;6.30;;;1.77;;
75542;SDS011;64129;53.508;10.476;2022-12-07T08:27:06;4.03;;;2.20;;
75542;SDS011;64129;53.508;10.476;2022-12-07T08:29:32;4.53;;;2.20;;
75542;SDS011;64129;53.508;10.476;2022-12-07T08:31:58;4.20;;;1.88;;
75542;SDS011;64129;53.508;10.476;2022-12-07T08:34:30;4.70;;;1.98;;
75542;SDS011;64129;53.508;10.476;2022-12-07T08:36:57;4.75;;;2.45;;
75542;SDS011;64129;53.508;10.476;2022-12-07T08:39:23;4.25;;;1.20;;
75542;SDS011;64129;53.508;10.476;2022-12-07T08:41:57;4.38;;;2.20;;
75542;SDS011;64129;53.508;10.476;2022-12-07T08:44:24;3.33;;;1.88;;
75542;SDS011;64129;53.508;10.476;2022-12-07T08:46:55;2.35;;;1.40;;
75542;SDS011;64129;53.508;10.476;2022-12-07T08:49:30;2.55;;;1.70;;
75542;SDS011;64129;53.508;10.476;2022-12-07T08:52:09;4.30;;;1.88;;
75542;SDS011;64129;53.508;10.476;2022-12-07T08:54:36;9.45;;;2.13;;
75542;SDS011;64129;53.508;10.476;2022-12-07T08:57:05;2.47;;;1.77;;
75542;SDS011;64129;53.508;10.476;2022-12-07T08:59:33;4.05;;;1.42;;
75542;SDS011;64129;53.508;10.476;2022-12-07T09:02:02;3.55;;;1.67;;
75542;SDS011;64129;53.508;10.476;2022-12-07T09:04:29;4.47;;;1.67;;
75542;SDS011;64129;53.508;10.476;2022-12-07T09:06:55;4.88;;;1.65;;
75542;SDS011;64129;53.508;10.476;2022-12-07T09:09:22;4.45;;;2.17;;
75542;SDS011;64129;53.508;10.476;2022-12-07T09:11:48;2.63;;;1.50;;
75542;SDS011;64129;53.508;10.476;2022-12-07T09:14:15;2.92;;;1.02;;
75542;SDS011;64129;53.508;10.476;2022-12-07T09:16:43;4.93;;;1.50;;
75542;SDS011;64129;53.508;10.476;2022-12-07T09:19:09;4.60;;;1.60;;
75542;SDS011;64129;53.508;10.476;2022-12-07T09:21:36;4.13;;;1.50;;
75542;SDS011;64129;53.508;10.476;2022-12-07T09:24:02;3.55;;;1.48;;
75542;SDS011;64129;53.508;10.476;2022-12-07T09:26:29;7.70;;;1.60;;
75542;SDS011;64129;53.508;10.476;2022-12-07T09:28:55;1.95;;;1.23;;
75542;SDS011;64129;53.508;10.476;2022-12-07T09:31:22;1.98;;;1.23;;
75542;SDS011;64129;53.508;10.476;2022-12-07T09:33:59;1.83;;;1.30;;
75542;SDS011;64129;53.508;10.476;2022-12-07T09:36:27;3.20;;;1.42;;
75542;SDS011;64129;53.508;10.476;2022-12-07T09:38:54;4.15;;;1.52;;
75542;SDS011;64129;53.508;10.476;2022-12-07T09:41:21;1.65;;;1.20;;
75542;SDS011;64129;53.508;10.476;2022-12-07T09:43:50;3.78;;;1.40;;
75542;SDS011;64129;53.508;10.476;2022-12-07T09:46:17;8.80;;;1.70;;
75542;SDS011;64129;53.508;10.476;2022-12-07T09:48:46;2.75;;;1.20;;
75542;SDS011;64129;53.508;10.476;2022-12-07T09:51:16;6.28;;;1.60;;
75542;SDS011;64129;53.508;10.476;2022-12-07T09:53:49;4.55;;;1.55;;
75542;SDS011;64129;53.508;10.476;2022-12-07T09:56:17;1.90;;;1.38;;
75542;SDS011;64129;53.508;10.476;2022-12-07T09:58:45;2.67;;;1.70;;
75542;SDS011;64129;53.508;10.476;2022-12-07T10:01:17;7.47;;;1.60;;
75542;SDS011;64129;53.508;10.476;2022-12-07T10:03:49;10.35;;;1.88;;
75542;SDS011;64129;53.508;10.476;2022-12-07T10:06:18;3.60;;;1.08;;
75542;SDS011;64129;53.508;10.476;2022-12-07T10:08:45;3.17;;;1.33;;
75542;SDS011;64129;53.508;10.476;2022-12-07T10:11:12;2.85;;;1.63;;
75542;SDS011;64129;53.508;10.476;2022-12-07T10:13:42;4.53;;;1.45;;
75542;SDS011;64129;53.508;10.476;2022-12-07T10:18:50;4.40;;;2.15;;
75542;SDS011;64129;53.508;10.476;2022-12-07T10:21:18;3.42;;;1.33;;
75542;SDS011;64129;53.508;10.476;2022-12-07T10:24:03;5.13;;;2.30;;
75542;SDS011;64129;53.508;10.476;2022-12-07T10:26:35;3.28;;;2.25;;
75542;SDS011;64129;53.508;10.476;2022-12-07T10:29:16;4.40;;;1.33;;
75542;SDS011;64129;53.508;10.476;2022-12-07T10:31:48;6.07;;;1.58;;
75542;SDS011;64129;53.508;10.476;2022-12-07T10:39:45;3.45;;;1.77;;
75542;SDS011;64129;53.508;10.476;2022-12-07T10:44:50;2.90;;;1.30;;
75542;SDS011;64129;53.508;10.476;2022-12-07T10:53:24;4.15;;;1.50;;
75542;SDS011;64129;53.508;10.476;2022-12-07T10:59:00;7.93;;;2.20;;
75542;SDS011;64129;53.508;10.476;2022-12-07T11:01:50;6.70;;;1.42;;
75542;SDS011;64129;53.508;10.476;2022-12-07T11:04:36;5.53;;;1.73;;
75542;SDS011;64129;53.508;10.476;2022-12-07T11:07:28;6.80;;;1.63;;
75542;SDS011;64129;53.508;10.476;2022-12-07T11:13:11;4.85;;;1.60;;
75542;SDS011;64129;53.508;10.476;2022-12-07T11:16:02;5.90;;;1.77;;
75542;SDS011;64129;53.508;10.476;2022-12-07T11:19:05;3.92;;;1.55;;
75542;SDS011;64129;53.508;10.476;2022-12-07T11:24:35;3.22;;;1.58;;
75542;SDS011;64129;53.508;10.476;2022-12-07T11:27:19;4.65;;;2.15;;
75542;SDS011;64129;53.508;10.476;2022-12-07T11:30:08;7.00;;;2.00;;
75542;SDS011;64129;53.508;10.476;2022-12-07T11:32:57;6.60;;;1.95;;
75542;SDS011;64129;53.508;10.476;2022-12-07T11:35:40;4.55;;;1.52;;
75542;SDS011;64129;53.508;10.476;2022-12-07T11:38:36;5.32;;;1.88;;
75542;SDS011;64129;53.508;10.476;2022-12-07T11:41:09;4.30;;;2.08;;
75542;SDS011;64129;53.508;10.476;2022-12-07T11:46:22;6.35;;;3.92;;
75542;SDS011;64129;53.508;10.476;2022-12-07T11:51:43;3.72;;;1.38;;
75542;SDS011;64129;53.508;10.476;2022-12-07T11:54:14;5.88;;;1.17;;
75542;SDS011;64129;53.508;10.476;2022-12-07T11:56:44;2.67;;;1.80;;
75542;SDS011;64129;53.508;10.476;2022-12-07T11:59:22;6.35;;;2.50;;
75542;SDS011;64129;53.508;10.476;2022-12-07T12:01:56;5.35;;;2.45;;
75542;SDS011;64129;53.508;10.476;2022-12-07T12:04:38;5.97;;;1.58;;
75542;SDS011;64129;53.508;10.476;2022-12-07T12:07:11;8.77;;;3.30;;
75542;SDS011;64129;53.508;10.476;2022-12-07T12:10:15;3.67;;;1.15;;
75542;SDS011;64129;53.508;10.476;2022-12-07T12:13:12;3.40;;;1.23;;
75542;SDS011;64129;53.508;10.476;2022-12-07T12:22:12;7.18;;;1.50;;
75542;SDS011;64129;53.508;10.476;2022-12-07T12:24:43;4.43;;;1.52;;
75542;SDS011;64129;53.508;10.476;2022-12-07T12:29:55;7.03;;;2.03;;
75542;SDS011;64129;53.508;10.476;2022-12-07T12:32:40;2.38;;;1.10;;
75542;SDS011;64129;53.508;10.476;2022-12-07T12:40:56;5.45;;;1.20;;
75542;SDS011;64129;53.508;10.476;2022-12-07T12:51:42;2.65;;;1.08;;
75542;SDS011;64129;53.508;10.476;2022-12-07T12:54:14;5.22;;;1.20;;
75542;SDS011;64129;53.508;10.476;2022-12-07T12:59:25;4.10;;;1.17;;
75542;SDS011;64129;53.508;10.476;2022-12-07T13:01:56;9.27;;;4.10;;
75542;SDS011;64129;53.508;10.476;2022-12-07T13:15:47;3.30;;;0.77;;
75542;SDS011;64129;53.508;10.476;2022-12-07T13:23:28;9.07;;;2.65;;
75542;SDS011;64129;53.508;10.476;2022-12-07T13:26:17;2.35;;;0.80;;
75542;SDS011;64129;53.508;10.476;2022-12-07T13:31:24;4.43;;;1.13;;
75542;SDS011;64129;53.508;10.476;2022-12-07T13:34:03;2.42;;;0.38;;
75542;SDS011;64129;53.508;10.476;2022-12-07T13:36:33;5.78;;;0.50;;
75542;SDS011;64129;53.508;10.476;2022-12-07T13:39:19;5.22;;;0.73;;
75542;SDS011;64129;53.508;10.476;2022-12-07T13:41:52;2.05;;;0.47;;
75542;SDS011;64129;53.508;10.476;2022-12-07T13:44:21;3.80;;;0.82;;
75542;SDS011;64129;53.508;10.476;2022-12-07T13:47:04;1.80;;;0.50;;
75542;SDS011;64129;53.508;10.476;2022-12-07T13:49:39;2.42;;;0.60;;
75542;SDS011;64129;53.508;10.476;2022-12-07T13:52:20;1.80;;;1.08;;
75542;SDS011;64129;53.508;10.476;2022-12-07T13:54:55;1.85;;;0.60;;
75542;SDS011;64129;53.508;10.476;2022-12-07T13:57:22;2.13;;;1.45;;
75542;SDS011;64129;53.508;10.476;2022-12-07T13:59:51;3.30;;;1.23;;
75542;SDS011;64129;53.508;10.476;2022-12-07T14:02:31;3.45;;;1.63;;
75542;SDS011;64129;53.508;10.476;2022-12-07T14:05:10;5.32;;;1.50;;
75542;SDS011;64129;53.508;10.476;2022-12-07T14:07:47;1.85;;;0.60;;
75542;SDS011;64129;53.508;10.476;2022-12-07T14:10:25;3.08;;;1.20;;
75542;SDS011;64129;53.508;10.476;2022-12-07T14:13:00;6.18;;;2.92;;
75542;SDS011;64129;53.508;10.476;2022-12-07T14:15:30;5.25;;;4.53;;
75542;SDS011;64129;53.508;10.476;2022-12-07T14:17:59;2.95;;;1.58;;
75542;SDS011;64129;53.508;10.476;2022-12-07T14:20:37;2.65;;;1.95;;
75542;SDS011;64129;53.508;10.476;2022-12-07T14:23:05;4.22;;;0.85;;
75542;SDS011;64129;53.508;10.476;2022-12-07T14:25:47;2.25;;;0.60;;
75542;SDS011;64129;53.508;10.476;2022-12-07T14:28:27;3.60;;;1.48;;
75542;SDS011;64129;53.508;10.476;2022-12-07T14:30:55;1.50;;;1.10;;
75542;SDS011;64129;53.508;10.476;2022-12-07T14:33:22;1.52;;;0.80;;
75542;SDS011;64129;53.508;10.476;2022-12-07T14:35:51;0.88;;;0.82;;
75542;SDS011;64129;53.508;10.476;2022-12-07T14:38:26;1.80;;;0.60;;
75542;SDS011;64129;53.508;10.476;2022-12-07T14:40:53;2.97;;;0.80;;
75542;SDS011;64129;53.508;10.476;2022-12-07T14:43:20;3.08;;;0.73;;
75542;SDS011;64129;53.508;10.476;2022-12-07T14:45:47;2.97;;;0.50;;
75542;SDS011;64129;53.508;10.476;2022-12-07T14:48:14;2.05;;;0.63;;
75542;SDS011;64129;53.508;10.476;2022-12-07T14:51:01;2.72;;;0.57;;
75542;SDS011;64129;53.508;10.476;2022-12-07T14:53:50;3.45;;;0.63;;
75542;SDS011;64129;53.508;10.476;2022-12-07T14:56:20;0.80;;;0.60;;
75542;SDS011;64129;53.508;10.476;2022-12-07T14:58:47;4.35;;;0.70;;
75542;SDS011;64129;53.508;10.476;2022-12-07T15:01:14;1.65;;;0.70;;
75542;SDS011;64129;53.508;10.476;2022-12-07T15:03:40;2.40;;;0.77;;
75542;SDS011;64129;53.508;10.476;2022-12-07T15:06:07;1.90;;;1.50;;
75542;SDS011;64129;53.508;10.476;2022-12-07T15:08:33;1.95;;;0.85;;
75542;SDS011;64129;53.508;10.476;2022-12-07T15:11:00;2.80;;;0.68;;
75542;SDS011;64129;53.508;10.476;2022-12-07T15:13:26;4.43;;;0.90;;
75542;SDS011;64129;53.508;10.476;2022-12-07T15:16:12;1.17;;;1.00;;
75542;SDS011;64129;53.508;10.476;2022-12-07T15:18:42;3.03;;;0.90;;
75542;SDS011;64129;53.508;10.476;2022-12-07T15:21:14;3.30;;;0.60;;
75542;SDS011;64129;53.508;10.476;2022-12-07T15:23:41;2.67;;;0.80;;
75542;SDS011;64129;53.508;10.476;2022-12-07T15:26:09;9.82;;;1.67;;
75542;SDS011;64129;53.508;10.476;2022-12-07T15:28:36;1.60;;;0.50;;
75542;SDS011;64129;53.508;10.476;2022-12-07T15:31:03;4.88;;;1.70;;
75542;SDS011;64129;53.508;10.476;2022-12-07T15:33:42;5.57;;;1.92;;
75542;SDS011;64129;53.508;10.476;2022-12-07T15:36:13;3.55;;;1.90;;
75542;SDS011;64129;53.508;10.476;2022-12-07T15:38:45;5.72;;;2.65;;
75542;SDS011;64129;53.508;10.476;2022-12-07T15:41:32;5.10;;;2.35;;
75542;SDS011;64129;53.508;10.476;2022-12-07T15:43:58;4.28;;;2.03;;
75542;SDS011;64129;53.508;10.476;2022-12-07T15:46:44;6.60;;;1.90;;
75542;SDS011;64129;53.508;10.476;2022-12-07T15:49:15;2.65;;;1.80;;
75542;SDS011;64129;53.508;10.476;2022-12-07T15:51:43;1.95;;;1.20;;
75542;SDS011;64129;53.508;10.476;2022-12-07T15:54:12;3.47;;;1.67;;
75542;SDS011;64129;53.508;10.476;2022-12-07T15:56:44;2.67;;;1.83;;
75542;SDS011;64129;53.508;10.476;2022-12-07T15:59:11;3.05;;;1.65;;
75542;SDS011;64129;53.508;10.476;2022-12-07T16:01:37;4.97;;;2.60;;
75542;SDS011;64129;53.508;10.476;2022-12-07T16:04:04;8.98;;;1.85;;
75542;SDS011;64129;53.508;10.476;2022-12-07T16:06:30;4.30;;;2.03;;
75542;SDS011;64129;53.508;10.476;2022-12-07T16:08:57;5.13;;;2.03;;
75542;SDS011;64129;53.508;10.476;2022-12-07T16:11:24;4.50;;;2.55;;
75542;SDS011;64129;53.508;10.476;2022-12-07T16:13:50;3.90;;;2.45;;
75542;SDS011;64129;53.508;10.476;2022-12-07T16:16:17;6.45;;;2.83;;
75542;SDS011;64129;53.508;10.476;2022-12-07T16:18:45;4.43;;;2.20;;
75542;SDS011;64129;53.508;10.476;2022-12-07T16:21:13;4.93;;;2.90;;
75542;SDS011;64129;53.508;10.476;2022-12-07T16:23:40;5.35;;;3.38;;
75542;SDS011;64129;53.508;10.476;2022-12-07T16:26:09;14.52;;;4.88;;
75542;SDS011;64129;53.508;10.476;2022-12-07T16:28:38;15.32;;;5.05;;
75542;SDS011;64129;53.508;10.476;2022-12-07T16:31:12;15.77;;;5.47;;
75542;SDS011;64129;53.508;10.476;2022-12-07T16:33:41;16.08;;;6.65;;
75542;SDS011;64129;53.508;10.476;2022-12-07T16:36:09;17.80;;;6.75;;
75542;SDS011;64129;53.508;10.476;2022-12-07T16:38:37;15.48;;;6.65;;